createdAt,value
2019-05-18T00:00:30.162Z,17.60
2019-05-18T00:03:02.122Z,17.47
2019-05-18T00:05:34.128Z,17.43
2019-05-18T00:08:06.251Z,18.00
2019-05-18T00:10:38.393Z,19.00
2019-05-18T00:13:10.377Z,19.20
2019-05-18T00:15:42.365Z,18.57
2019-05-18T00:18:14.335Z,18.30
2019-05-18T00:20:46.742Z,18.43
2019-05-18T00:23:19.225Z,18.90
2019-05-18T00:25:51.217Z,18.77
2019-05-18T00:28:23.258Z,18.53
2019-05-18T00:30:55.662Z,18.73
2019-05-18T00:33:27.762Z,20.13
2019-05-18T00:36:00.213Z,19.77
2019-05-18T00:38:32.199Z,19.40
2019-05-18T00:41:04.236Z,19.27
2019-05-18T00:43:36.308Z,18.77
2019-05-18T00:46:08.537Z,18.83
2019-05-18T00:48:40.857Z,19.60
2019-05-18T00:51:12.829Z,19.47
2019-05-18T00:53:44.786Z,18.77
2019-05-18T00:56:16.772Z,19.67
2019-05-18T00:58:48.783Z,19.17
2019-05-18T01:01:20.869Z,19.23
2019-05-18T01:03:52.854Z,18.93
2019-05-18T01:06:24.897Z,18.73
2019-05-18T01:08:56.859Z,18.70
2019-05-18T01:11:28.894Z,18.53
2019-05-18T01:14:00.875Z,18.10
2019-05-18T01:16:32.853Z,17.53
2019-05-18T01:19:04.831Z,17.67
2019-05-18T01:21:36.847Z,17.03
2019-05-18T01:24:08.789Z,17.73
2019-05-18T01:26:40.785Z,16.87
2019-05-18T01:29:12.719Z,16.67
2019-05-18T01:31:44.810Z,16.93
2019-05-18T01:34:16.865Z,18.83
2019-05-18T01:36:48.931Z,18.53
2019-05-18T01:39:20.953Z,17.57
2019-05-18T01:41:52.974Z,19.23
2019-05-18T01:44:25.019Z,19.80
2019-05-18T01:46:56.983Z,20.27
2019-05-18T01:49:29.038Z,20.13
2019-05-18T01:52:01.026Z,19.47
2019-05-18T01:54:33.071Z,20.70
2019-05-18T01:57:05.121Z,20.43
2019-05-18T01:59:37.096Z,20.00
2019-05-18T02:02:09.105Z,19.73
2019-05-18T02:04:41.236Z,21.87
2019-05-18T02:07:13.497Z,20.60
2019-05-18T02:09:45.749Z,20.93
2019-05-18T02:12:17.716Z,20.43
2019-05-18T02:14:49.947Z,20.60
2019-05-18T02:17:22.003Z,20.83
2019-05-18T02:19:54.225Z,20.37
2019-05-18T02:22:26.205Z,18.80
2019-05-18T02:24:58.238Z,18.57
2019-05-18T02:27:30.180Z,17.87
2019-05-18T02:30:02.197Z,17.97
2019-05-18T02:32:34.472Z,18.40
2019-05-18T02:35:07.471Z,16.77
2019-05-18T02:37:39.504Z,16.50
2019-05-18T02:40:11.970Z,15.77
2019-05-18T02:42:44.002Z,16.00
2019-05-18T02:45:15.965Z,13.90
2019-05-18T02:47:48.205Z,16.00
2019-05-18T02:50:20.240Z,15.80
2019-05-18T02:52:52.281Z,16.30
2019-05-18T02:55:24.652Z,15.30
2019-05-18T02:57:57.058Z,16.57
2019-05-18T03:00:29.100Z,16.10
2019-05-18T03:03:01.190Z,15.83
2019-05-18T03:05:33.369Z,17.10
2019-05-18T03:08:05.314Z,17.50
2019-05-18T03:10:37.304Z,16.53
2019-05-18T03:13:09.318Z,15.33
2019-05-18T03:15:41.501Z,15.67
2019-05-18T03:18:13.570Z,14.73
2019-05-18T03:20:45.598Z,14.77
2019-05-18T03:23:17.887Z,15.37
2019-05-18T03:25:49.946Z,14.33
2019-05-18T03:28:21.957Z,13.80
2019-05-18T03:30:53.943Z,14.97
2019-05-18T03:33:29.431Z,15.63
2019-05-18T03:35:59.845Z,14.93
2019-05-18T03:38:31.868Z,14.67
2019-05-18T03:41:04.409Z,15.53
2019-05-18T03:43:36.460Z,14.93
2019-05-18T03:46:08.514Z,15.70
2019-05-18T03:48:40.916Z,15.60
2019-05-18T03:51:12.907Z,15.80
2019-05-18T03:53:45.006Z,15.17
2019-05-18T03:56:17.031Z,15.20
2019-05-18T03:58:49.097Z,15.00
2019-05-18T04:01:21.253Z,15.27
2019-05-18T04:03:53.516Z,15.37
2019-05-18T04:06:25.839Z,14.17
2019-05-18T04:08:58.180Z,15.57
2019-05-18T04:11:30.499Z,14.23
2019-05-18T04:14:07.653Z,16.63
2019-05-18T04:16:36.786Z,15.10
2019-05-18T04:19:08.775Z,15.07
2019-05-18T04:21:41.261Z,14.53
2019-05-18T04:24:13.190Z,14.97
2019-05-18T04:26:45.426Z,15.73
2019-05-18T04:29:17.418Z,15.53
2019-05-18T04:31:49.376Z,17.47
2019-05-18T04:34:21.452Z,18.00
2019-05-18T04:36:53.609Z,19.83
2019-05-18T04:39:25.772Z,19.13
2019-05-18T04:41:57.777Z,20.20
2019-05-18T04:44:29.875Z,19.93
2019-05-18T04:47:01.994Z,21.10
2019-05-18T04:49:33.974Z,20.33
2019-05-18T04:52:06.047Z,19.43
2019-05-18T04:54:39.341Z,18.73
2019-05-18T04:57:11.334Z,19.63
2019-05-18T04:59:43.287Z,19.53
2019-05-18T05:02:15.328Z,18.93
2019-05-18T05:04:47.465Z,19.37
2019-05-18T05:07:19.610Z,20.40
2019-05-18T05:09:51.957Z,20.40
2019-05-18T05:12:23.989Z,19.83
2019-05-18T05:17:45.423Z,19.17
2019-05-18T05:20:20.071Z,19.50
2019-05-18T05:22:51.554Z,20.17
2019-05-18T05:25:23.540Z,20.00
2019-05-18T05:28:12.813Z,20.23
2019-05-18T05:31:02.120Z,19.87
2019-05-18T05:33:51.780Z,20.13
2019-05-18T05:36:23.912Z,19.13
2019-05-18T05:38:56.091Z,17.77
2019-05-18T05:41:28.163Z,19.53
2019-05-18T05:44:00.198Z,18.90
2019-05-18T05:46:32.296Z,17.13
2019-05-18T05:49:04.784Z,17.70
2019-05-18T05:51:36.788Z,18.40
2019-05-18T05:54:08.797Z,18.97
2019-05-18T05:56:40.795Z,19.07
2019-05-18T05:59:12.890Z,18.57
2019-05-18T06:01:45.074Z,19.60
2019-05-18T06:04:17.138Z,19.40
2019-05-18T06:06:49.301Z,20.63
2019-05-18T06:09:21.525Z,21.30
2019-05-18T06:11:53.579Z,21.70
2019-05-18T06:14:25.793Z,21.90
2019-05-18T06:17:15.436Z,22.07
2019-05-18T06:20:10.505Z,22.87
2019-05-18T06:22:59.592Z,22.03
2019-05-18T06:25:49.016Z,22.90
2019-05-18T06:28:38.592Z,22.00
2019-05-18T06:31:28.649Z,22.80
2019-05-18T06:34:18.199Z,23.67
2019-05-18T06:37:07.719Z,23.70
2019-05-18T06:39:57.162Z,23.27
2019-05-18T06:42:46.837Z,24.13
2019-05-18T06:45:36.324Z,24.93
2019-05-18T06:48:25.957Z,24.27
2019-05-18T06:51:15.255Z,24.83
2019-05-18T06:54:04.748Z,26.67
2019-05-18T06:56:55.018Z,25.30
2019-05-18T06:59:45.406Z,25.43
2019-05-18T07:02:35.025Z,27.83
2019-05-18T07:05:24.630Z,25.57
2019-05-18T07:08:13.870Z,25.87
2019-05-18T07:11:03.168Z,25.70
2019-05-18T07:13:52.711Z,25.60
2019-05-18T07:16:42.285Z,26.30
2019-05-18T07:19:31.713Z,26.57
2019-05-18T07:22:03.887Z,27.00
2019-05-18T07:24:35.965Z,26.63
2019-05-18T07:27:07.970Z,27.93
2019-05-18T07:29:39.997Z,27.80
2019-05-18T07:32:12.027Z,29.70
2019-05-18T07:34:44.288Z,27.80
2019-05-18T07:37:16.448Z,28.40
2019-05-18T07:39:48.954Z,30.57
2019-05-18T07:42:21.355Z,29.60
2019-05-18T07:44:53.458Z,30.53
2019-05-18T07:47:25.892Z,29.07
2019-05-18T07:49:57.942Z,29.63
2019-05-18T07:52:30.030Z,31.50
2019-05-18T07:55:02.301Z,30.13
2019-05-18T07:57:34.606Z,31.70
2019-05-18T08:00:08.195Z,31.77
2019-05-18T08:02:40.570Z,31.03
2019-05-18T08:05:12.722Z,32.63
2019-05-18T08:07:44.745Z,32.47
2019-05-18T08:10:21.425Z,34.40
2019-05-18T08:12:53.653Z,34.97
2019-05-18T08:15:25.822Z,34.73
2019-05-18T08:17:57.780Z,34.70
2019-05-18T08:20:29.927Z,36.20
2019-05-18T08:23:02.206Z,34.73
2019-05-18T08:25:34.584Z,38.07
2019-05-18T08:28:06.595Z,38.97
2019-05-18T08:30:38.619Z,39.23
2019-05-18T08:33:12.328Z,38.93
2019-05-18T08:35:44.726Z,38.93
2019-05-18T08:38:16.745Z,38.40
2019-05-18T08:40:48.983Z,39.27
2019-05-18T08:43:21.296Z,39.80
2019-05-18T08:45:53.277Z,41.60
2019-05-18T08:48:25.248Z,40.70
2019-05-18T08:50:57.555Z,38.80
2019-05-18T08:53:29.812Z,39.77
2019-05-18T08:56:01.856Z,41.80
2019-05-18T08:58:33.863Z,40.83
2019-05-18T09:01:06.276Z,41.73
2019-05-18T09:03:38.257Z,41.77
2019-05-18T09:06:10.306Z,40.77
2019-05-18T09:08:42.627Z,40.27
2019-05-18T09:11:14.695Z,40.93
2019-05-18T09:13:46.753Z,39.27
2019-05-18T09:16:18.845Z,39.40
2019-05-18T09:18:50.903Z,39.63
2019-05-18T09:21:22.926Z,39.20
2019-05-18T09:23:54.963Z,35.47
2019-05-18T09:26:27.004Z,36.83
2019-05-18T09:28:58.953Z,37.37
2019-05-18T09:31:30.948Z,37.80
2019-05-18T09:34:03.015Z,35.10
2019-05-18T09:36:34.972Z,34.53
2019-05-18T09:39:08.279Z,35.37
2019-05-18T09:41:40.528Z,32.33
2019-05-18T09:44:12.762Z,33.20
2019-05-18T09:46:45.120Z,31.93
2019-05-18T09:49:17.250Z,31.00
2019-05-18T09:51:49.641Z,31.07
2019-05-18T09:54:21.612Z,31.77
2019-05-18T09:56:53.604Z,29.83
2019-05-18T09:59:25.630Z,28.47
2019-05-18T10:01:57.682Z,27.43
2019-05-18T10:04:29.725Z,27.97
2019-05-18T10:07:01.774Z,27.80
2019-05-18T10:09:39.198Z,27.67
2019-05-18T10:12:07.820Z,27.57
2019-05-18T10:14:39.862Z,25.63
2019-05-18T10:17:12.786Z,24.30
2019-05-18T10:19:45.154Z,23.93
2019-05-18T10:22:17.188Z,24.63
2019-05-18T10:24:49.225Z,23.57
2019-05-18T10:27:21.268Z,21.67
2019-05-18T10:29:53.255Z,23.80
2019-05-18T10:32:25.200Z,24.97
2019-05-18T10:34:57.467Z,23.20
2019-05-18T10:37:29.724Z,20.43
2019-05-18T10:40:01.698Z,21.40
2019-05-18T10:42:33.663Z,23.27
2019-05-18T10:45:10.202Z,21.83
2019-05-18T10:47:42.402Z,23.03
2019-05-18T10:50:15.509Z,20.07
2019-05-18T10:52:47.806Z,20.17
2019-05-18T10:55:21.435Z,19.70
2019-05-18T10:57:53.423Z,17.00
2019-05-18T11:00:26.091Z,18.67
2019-05-18T11:02:58.062Z,20.07
2019-05-18T11:05:30.285Z,18.37
2019-05-18T11:08:02.297Z,17.50
2019-05-18T11:10:34.588Z,18.03
2019-05-18T11:13:06.659Z,17.57
2019-05-18T11:15:38.786Z,17.97
2019-05-18T11:18:10.773Z,17.07
2019-05-18T11:20:42.723Z,14.77
2019-05-18T11:23:14.677Z,16.10
2019-05-18T11:25:46.737Z,14.90
2019-05-18T11:28:18.672Z,14.13
2019-05-18T11:30:50.717Z,14.87
2019-05-18T11:33:23.147Z,14.60
2019-05-18T11:35:55.125Z,15.10
2019-05-18T11:38:27.114Z,15.33
2019-05-18T11:40:59.885Z,15.10
2019-05-18T11:43:31.925Z,15.63
2019-05-18T11:46:04.021Z,14.23
2019-05-18T11:48:35.994Z,14.37
2019-05-18T11:51:08.139Z,14.17
2019-05-18T11:53:40.599Z,12.70
2019-05-18T11:56:12.686Z,15.70
2019-05-18T11:58:44.737Z,15.83
2019-05-18T12:01:16.731Z,15.53
2019-05-18T12:03:49.505Z,15.20
2019-05-18T12:06:21.562Z,14.93
2019-05-18T12:08:53.567Z,14.57
2019-05-18T12:11:25.985Z,14.80
2019-05-18T12:13:58.057Z,14.47
2019-05-18T12:16:30.115Z,14.30
2019-05-18T12:19:02.090Z,14.07
2019-05-18T12:21:34.412Z,13.80
2019-05-18T12:24:15.538Z,14.10
2019-05-18T12:26:40.521Z,14.10
2019-05-18T12:29:12.516Z,14.53
2019-05-18T12:31:44.562Z,15.07
2019-05-18T12:34:16.610Z,15.70
2019-05-18T12:36:48.578Z,15.10
2019-05-18T12:39:20.809Z,14.73
2019-05-18T12:41:52.765Z,15.13
2019-05-18T12:44:25.075Z,15.43
2019-05-18T12:46:57.229Z,15.10
2019-05-18T12:49:29.295Z,15.20
2019-05-18T12:52:01.603Z,15.17
2019-05-18T12:54:45.563Z,16.03
2019-05-18T12:57:07.377Z,15.97
2019-05-18T12:59:39.441Z,16.37
2019-05-18T13:02:11.436Z,14.80
2019-05-18T13:04:43.405Z,16.90
2019-05-18T13:07:15.452Z,15.07
2019-05-18T13:09:47.444Z,16.07
2019-05-18T13:12:19.499Z,14.67
2019-05-18T13:14:51.995Z,16.07
2019-05-18T13:17:24.244Z,14.90
2019-05-18T13:19:56.253Z,16.27
2019-05-18T13:22:28.280Z,15.03
2019-05-18T13:25:00.392Z,15.73
2019-05-18T13:27:39.550Z,16.33
2019-05-18T13:30:09.254Z,15.53
2019-05-18T13:32:41.683Z,14.93
2019-05-18T13:35:16.181Z,16.00
2019-05-18T13:37:48.169Z,14.90
2019-05-18T13:40:20.805Z,16.03
2019-05-18T13:42:53.076Z,16.40
2019-05-18T13:45:25.492Z,15.80
2019-05-18T13:47:57.722Z,15.90
2019-05-18T13:50:29.746Z,14.83
2019-05-18T13:53:01.776Z,13.97
2019-05-18T13:55:33.739Z,14.57
2019-05-18T13:58:06.012Z,13.83
2019-05-18T14:00:38.065Z,14.07
2019-05-18T14:03:10.097Z,14.30
2019-05-18T14:05:42.135Z,14.60
2019-05-18T14:08:15.702Z,14.23
2019-05-18T14:10:48.039Z,14.03
2019-05-18T14:13:20.128Z,14.73
2019-05-18T14:15:52.097Z,14.00
2019-05-18T14:18:24.112Z,14.37
2019-05-18T14:20:56.319Z,14.27
2019-05-18T14:23:28.473Z,14.43
2019-05-18T14:26:00.524Z,14.50
2019-05-18T14:28:32.633Z,14.37
2019-05-18T14:31:04.769Z,13.73
2019-05-18T14:33:36.790Z,13.60
2019-05-18T14:36:09.017Z,13.43
2019-05-18T14:38:41.408Z,14.67
2019-05-18T14:41:14.002Z,13.50
2019-05-18T14:43:46.009Z,13.23
2019-05-18T14:46:18.049Z,13.73
2019-05-18T14:48:50.444Z,12.97
2019-05-18T14:51:22.470Z,14.30
2019-05-18T14:53:54.705Z,13.57
2019-05-18T14:56:26.963Z,13.53
2019-05-18T14:58:58.940Z,12.60
2019-05-18T15:01:31.237Z,13.10
2019-05-18T15:04:03.606Z,13.70
2019-05-18T15:06:35.678Z,13.87
2019-05-18T15:09:07.942Z,12.87
2019-05-18T15:11:39.988Z,12.13
2019-05-18T15:14:12.056Z,12.10
2019-05-18T15:16:44.097Z,11.10
2019-05-18T15:19:16.103Z,11.63
2019-05-18T15:21:48.215Z,10.60
2019-05-18T15:24:20.255Z,10.87
2019-05-18T15:26:52.285Z,11.53
2019-05-18T15:29:24.588Z,11.17
2019-05-18T15:31:56.682Z,12.10
2019-05-18T15:34:28.725Z,11.77
2019-05-18T15:37:00.698Z,11.40
2019-05-18T15:39:32.809Z,10.93
2019-05-18T15:42:05.200Z,11.47
2019-05-18T15:44:37.648Z,11.37
2019-05-18T15:47:10.476Z,11.63
2019-05-18T15:49:42.454Z,10.97
2019-05-18T15:52:14.489Z,12.03
2019-05-18T15:54:46.639Z,10.33
2019-05-18T15:57:18.643Z,11.03
2019-05-18T15:59:50.613Z,10.40
2019-05-18T16:02:22.770Z,12.17
2019-05-18T16:04:54.805Z,11.07
2019-05-18T16:07:26.842Z,11.67
2019-05-18T16:09:58.975Z,10.97
2019-05-18T16:12:31.032Z,11.33
2019-05-18T16:15:03.517Z,10.90
2019-05-18T16:17:39.298Z,10.60
2019-05-18T16:20:11.905Z,11.07
2019-05-18T16:22:44.531Z,10.20
2019-05-18T16:25:16.968Z,9.10
2019-05-18T16:27:49.697Z,9.50
2019-05-18T16:30:22.578Z,10.27
2019-05-18T16:32:54.637Z,9.77
2019-05-18T16:35:26.814Z,9.93
2019-05-18T16:37:58.751Z,11.47
2019-05-18T16:40:30.714Z,9.67
2019-05-18T16:43:10.402Z,10.33
2019-05-18T16:45:43.505Z,9.27
2019-05-18T16:48:17.963Z,11.27
2019-05-18T16:50:51.947Z,10.17
2019-05-18T16:53:28.744Z,10.57
2019-05-18T16:56:01.461Z,12.13
2019-05-18T16:58:33.793Z,13.03
2019-05-18T17:01:05.891Z,12.93
2019-05-18T17:03:39.925Z,16.07
2019-05-18T17:06:11.995Z,17.23
2019-05-18T17:08:43.962Z,16.57
2019-05-18T17:11:17.840Z,17.50
2019-05-18T17:13:49.889Z,19.17
2019-05-18T17:16:21.962Z,19.07
2019-05-18T17:18:53.997Z,18.87
2019-05-18T17:21:26.038Z,18.50
2019-05-18T17:23:58.712Z,21.33
2019-05-18T17:26:30.745Z,22.40
2019-05-18T17:29:03.151Z,20.83
2019-05-18T17:31:41.802Z,21.63
2019-05-18T17:34:14.966Z,21.27
2019-05-18T17:36:52.465Z,22.63
2019-05-18T17:39:22.484Z,24.27
2019-05-18T17:41:54.652Z,23.20
2019-05-18T17:44:26.653Z,22.87
2019-05-18T17:46:58.961Z,23.27
2019-05-18T17:49:30.973Z,22.80
2019-05-18T17:52:03.085Z,22.83
2019-05-18T17:54:35.194Z,23.80
2019-05-18T17:57:09.039Z,23.30
2019-05-18T17:59:41.310Z,23.73
2019-05-18T18:02:13.380Z,23.33
2019-05-18T18:04:45.808Z,23.73
2019-05-18T18:07:17.832Z,24.53
2019-05-18T18:09:49.794Z,24.60
2019-05-18T18:12:21.856Z,22.47
2019-05-18T18:14:53.832Z,24.67
2019-05-18T18:17:25.799Z,25.17
2019-05-18T18:19:57.956Z,24.00
2019-05-18T18:22:30.098Z,24.67
2019-05-18T18:25:02.436Z,25.90
2019-05-18T18:27:34.379Z,24.23
2019-05-18T18:30:11.065Z,25.87
2019-05-18T18:32:43.692Z,25.23
2019-05-18T18:35:15.744Z,23.87
2019-05-18T18:37:47.730Z,23.03
2019-05-18T18:40:19.697Z,23.50
2019-05-18T18:42:51.737Z,22.53
2019-05-18T18:45:23.729Z,22.47
2019-05-18T18:47:55.751Z,22.17
2019-05-18T18:50:27.799Z,20.43
2019-05-18T18:52:59.911Z,20.93
2019-05-18T18:55:32.348Z,21.20
2019-05-18T18:58:05.322Z,20.13
2019-05-18T19:00:37.879Z,21.53
2019-05-18T19:03:09.885Z,20.20
2019-05-18T19:05:41.939Z,21.70
2019-05-18T19:08:13.906Z,21.30
2019-05-18T19:10:45.947Z,21.43
2019-05-18T19:13:17.909Z,19.53
2019-05-18T19:15:49.973Z,18.73
2019-05-18T19:18:24.385Z,17.97
2019-05-18T19:20:56.650Z,19.27
2019-05-18T19:23:28.639Z,19.30
2019-05-18T19:26:01.988Z,20.67
2019-05-18T19:28:34.128Z,19.10
2019-05-18T19:31:06.240Z,19.13
2019-05-18T19:33:39.289Z,19.10
2019-05-18T19:36:11.315Z,19.53
2019-05-18T19:38:43.519Z,18.70
2019-05-18T19:41:16.809Z,17.47
2019-05-18T19:43:48.895Z,18.90
2019-05-18T19:46:20.936Z,19.17
2019-05-18T19:48:54.023Z,16.70
2019-05-18T19:51:26.411Z,17.83
2019-05-18T19:53:58.756Z,17.63
2019-05-18T19:56:38.282Z,17.37
2019-05-18T19:59:05.244Z,15.93
2019-05-18T20:01:37.602Z,17.27
2019-05-18T20:04:09.594Z,15.63
2019-05-18T20:06:41.615Z,16.40
2019-05-18T20:09:13.845Z,16.00
2019-05-18T20:11:45.849Z,15.63
2019-05-18T20:14:17.884Z,14.83
2019-05-18T20:16:51.211Z,14.67
2019-05-18T20:19:37.910Z,16.17
2019-05-18T20:21:57.335Z,14.97
2019-05-18T20:24:39.479Z,14.87
2019-05-18T20:27:11.481Z,15.57
2019-05-18T20:29:43.873Z,14.10
2019-05-18T20:32:16.033Z,15.53
2019-05-18T20:34:48.333Z,15.93
2019-05-18T20:37:20.745Z,14.60
2019-05-18T20:39:52.870Z,15.27
2019-05-18T20:42:24.963Z,14.70
2019-05-18T20:44:58.205Z,14.80
2019-05-18T20:47:30.380Z,16.53
2019-05-18T20:50:03.772Z,14.27
2019-05-18T20:52:35.808Z,14.87
2019-05-18T20:55:08.118Z,13.87
2019-05-18T20:57:40.098Z,13.97
2019-05-18T21:00:12.110Z,13.37
2019-05-18T21:02:44.451Z,12.80
2019-05-18T21:05:16.696Z,13.67
2019-05-18T21:07:48.948Z,13.97
2019-05-18T21:10:22.357Z,13.33
2019-05-18T21:12:54.467Z,14.20
2019-05-18T21:15:45.760Z,12.80
2019-05-18T21:18:17.793Z,16.23
2019-05-18T21:20:51.944Z,16.10
2019-05-18T21:23:24.213Z,17.27
2019-05-18T21:25:56.585Z,17.27
2019-05-18T21:28:28.929Z,16.87
2019-05-18T21:31:02.895Z,17.93
2019-05-18T21:33:34.950Z,17.87
2019-05-18T21:36:07.277Z,18.43
2019-05-18T21:38:39.582Z,17.90
2019-05-18T21:41:11.601Z,18.03
2019-05-18T21:43:43.610Z,17.97
2019-05-18T21:46:17.190Z,17.53
2019-05-18T21:48:49.172Z,19.80
2019-05-18T21:51:21.516Z,17.27
2019-05-18T21:53:53.571Z,19.90
2019-05-18T21:56:25.564Z,19.43
2019-05-18T21:59:10.744Z,18.57
2019-05-18T22:01:37.382Z,18.07
2019-05-18T22:04:09.359Z,18.93
2019-05-18T22:06:41.732Z,19.70
2019-05-18T22:09:13.793Z,18.57
2019-05-18T22:11:45.792Z,18.23
2019-05-18T22:14:18.034Z,18.17
2019-05-18T22:16:50.381Z,21.10
2019-05-18T22:19:22.706Z,18.40
2019-05-18T22:21:57.495Z,23.17
2019-05-18T22:24:29.866Z,18.83
2019-05-18T22:27:02.205Z,19.67
2019-05-18T22:29:34.194Z,22.47
2019-05-18T22:32:06.528Z,20.77
2019-05-18T22:34:38.591Z,20.03
2019-05-18T22:37:10.555Z,21.93
2019-05-18T22:39:42.676Z,20.40
2019-05-18T22:42:14.914Z,21.00
2019-05-18T22:44:47.307Z,21.70
2019-05-18T22:47:19.575Z,18.40
2019-05-18T22:49:51.629Z,18.53
2019-05-18T22:52:23.856Z,17.63
2019-05-18T22:54:55.887Z,17.73
2019-05-18T22:57:27.929Z,19.07
2019-05-18T22:59:59.987Z,18.80
2019-05-18T23:02:32.044Z,17.53
2019-05-18T23:05:04.921Z,22.27
2019-05-18T23:07:37.139Z,19.10
2019-05-18T23:10:09.325Z,18.97
2019-05-18T23:12:41.336Z,19.97
2019-05-18T23:15:13.953Z,18.07
2019-05-18T23:17:46.041Z,17.23
2019-05-18T23:20:18.192Z,18.13
2019-05-18T23:22:50.895Z,17.93
2019-05-18T23:25:22.870Z,16.93
2019-05-18T23:27:54.900Z,18.57
2019-05-18T23:30:26.965Z,18.43
2019-05-18T23:32:58.991Z,18.10
2019-05-18T23:35:31.133Z,20.50
2019-05-18T23:38:03.140Z,18.63
2019-05-18T23:40:35.151Z,16.53
2019-05-18T23:43:07.166Z,18.63
2019-05-18T23:45:39.258Z,20.90
2019-05-18T23:48:11.237Z,21.17
2019-05-18T23:50:43.264Z,19.10
2019-05-18T23:53:15.261Z,21.13
2019-05-18T23:55:47.301Z,19.50
2019-05-18T23:58:19.226Z,20.50
